sensor_id;sensor_type;location;lat;lon;timestamp;P1;durP1;ratioP1;P2;durP2;ratioP2
54959;SDS011;40860;51.710;8.736;2023-12-20T00:01:11;19.27;;;13.25;;
54959;SDS011;40860;51.710;8.736;2023-12-20T00:05:14;18.85;;;13.43;;
54959;SDS011;40860;51.710;8.736;2023-12-20T00:09:18;19.67;;;13.85;;
54959;SDS011;40860;51.710;8.736;2023-12-20T00:13:21;19.77;;;13.70;;
54959;SDS011;40860;51.710;8.736;2023-12-20T00:17:24;16.33;;;11.10;;
54959;SDS011;40860;51.710;8.736;2023-12-20T00:21:27;14.77;;;10.35;;
54959;SDS011;40860;51.710;8.736;2023-12-20T00:25:31;17.27;;;12.15;;
54959;SDS011;40860;51.710;8.736;2023-12-20T00:29:33;16.88;;;11.80;;
54959;SDS011;40860;51.710;8.736;2023-12-20T00:33:37;17.40;;;11.40;;
54959;SDS011;40860;51.710;8.736;2023-12-20T00:37:41;13.57;;;10.23;;
54959;SDS011;40860;51.710;8.736;2023-12-20T00:41:48;11.73;;;8.48;;
54959;SDS011;40860;51.710;8.736;2023-12-20T00:45:50;11.20;;;8.07;;
54959;SDS011;40860;51.710;8.736;2023-12-20T00:49:54;9.88;;;6.95;;
54959;SDS011;40860;51.710;8.736;2023-12-20T00:53:57;7.95;;;6.30;;
54959;SDS011;40860;51.710;8.736;2023-12-20T00:58:01;6.65;;;4.75;;
54959;SDS011;40860;51.710;8.736;2023-12-20T01:02:04;8.32;;;5.18;;
54959;SDS011;40860;51.710;8.736;2023-12-20T01:06:07;8.55;;;5.32;;
54959;SDS011;40860;51.710;8.736;2023-12-20T01:10:10;11.50;;;5.82;;
54959;SDS011;40860;51.710;8.736;2023-12-20T01:14:14;14.10;;;7.30;;
54959;SDS011;40860;51.710;8.736;2023-12-20T01:18:18;11.98;;;7.70;;
54959;SDS011;40860;51.710;8.736;2023-12-20T01:22:20;13.18;;;7.53;;
54959;SDS011;40860;51.710;8.736;2023-12-20T01:26:23;8.43;;;5.65;;
54959;SDS011;40860;51.710;8.736;2023-12-20T01:30:29;10.80;;;5.50;;
54959;SDS011;40860;51.710;8.736;2023-12-20T01:34:32;8.98;;;5.28;;
54959;SDS011;40860;51.710;8.736;2023-12-20T01:38:35;10.10;;;5.28;;
54959;SDS011;40860;51.710;8.736;2023-12-20T01:42:41;9.35;;;5.90;;
54959;SDS011;40860;51.710;8.736;2023-12-20T01:46:46;8.77;;;5.70;;
54959;SDS011;40860;51.710;8.736;2023-12-20T01:50:49;10.00;;;5.80;;
54959;SDS011;40860;51.710;8.736;2023-12-20T01:54:53;11.45;;;5.75;;
54959;SDS011;40860;51.710;8.736;2023-12-20T01:59:02;8.45;;;5.45;;
54959;SDS011;40860;51.710;8.736;2023-12-20T02:03:07;10.85;;;5.82;;
54959;SDS011;40860;51.710;8.736;2023-12-20T02:07:10;9.07;;;5.35;;
54959;SDS011;40860;51.710;8.736;2023-12-20T02:11:14;11.20;;;5.15;;
54959;SDS011;40860;51.710;8.736;2023-12-20T02:15:17;10.15;;;4.93;;
54959;SDS011;40860;51.710;8.736;2023-12-20T02:19:21;11.00;;;5.55;;
54959;SDS011;40860;51.710;8.736;2023-12-20T02:23:26;11.05;;;6.43;;
54959;SDS011;40860;51.710;8.736;2023-12-20T02:27:28;9.88;;;5.40;;
54959;SDS011;40860;51.710;8.736;2023-12-20T02:31:31;13.05;;;5.78;;
54959;SDS011;40860;51.710;8.736;2023-12-20T02:35:34;14.30;;;5.63;;
54959;SDS011;40860;51.710;8.736;2023-12-20T02:39:38;12.00;;;7.00;;
54959;SDS011;40860;51.710;8.736;2023-12-20T02:43:41;11.95;;;6.10;;
54959;SDS011;40860;51.710;8.736;2023-12-20T02:47:45;10.57;;;5.78;;
54959;SDS011;40860;51.710;8.736;2023-12-20T02:51:48;9.50;;;5.57;;
54959;SDS011;40860;51.710;8.736;2023-12-20T02:55:53;11.38;;;5.82;;
54959;SDS011;40860;51.710;8.736;2023-12-20T02:59:56;11.23;;;5.90;;
54959;SDS011;40860;51.710;8.736;2023-12-20T03:03:58;10.13;;;5.63;;
54959;SDS011;40860;51.710;8.736;2023-12-20T03:08:01;14.27;;;6.25;;
54959;SDS011;40860;51.710;8.736;2023-12-20T03:12:06;12.90;;;6.78;;
54959;SDS011;40860;51.710;8.736;2023-12-20T03:16:09;11.80;;;6.80;;
54959;SDS011;40860;51.710;8.736;2023-12-20T03:20:12;13.70;;;6.90;;
54959;SDS011;40860;51.710;8.736;2023-12-20T03:24:15;13.82;;;6.90;;
54959;SDS011;40860;51.710;8.736;2023-12-20T03:28:19;12.63;;;6.78;;
54959;SDS011;40860;51.710;8.736;2023-12-20T03:32:22;13.80;;;6.63;;
54959;SDS011;40860;51.710;8.736;2023-12-20T03:36:25;16.40;;;6.40;;
54959;SDS011;40860;51.710;8.736;2023-12-20T03:40:28;15.40;;;6.60;;
54959;SDS011;40860;51.710;8.736;2023-12-20T03:44:32;10.98;;;6.38;;
54959;SDS011;40860;51.710;8.736;2023-12-20T03:48:35;10.52;;;6.18;;
54959;SDS011;40860;51.710;8.736;2023-12-20T03:52:37;12.27;;;6.78;;
54959;SDS011;40860;51.710;8.736;2023-12-20T03:56:40;13.40;;;6.40;;
54959;SDS011;40860;51.710;8.736;2023-12-20T04:00:44;9.80;;;6.22;;
54959;SDS011;40860;51.710;8.736;2023-12-20T04:04:47;13.90;;;6.18;;
54959;SDS011;40860;51.710;8.736;2023-12-20T04:08:50;14.57;;;6.20;;
54959;SDS011;40860;51.710;8.736;2023-12-20T04:12:53;13.50;;;6.03;;
54959;SDS011;40860;51.710;8.736;2023-12-20T04:16:58;16.42;;;6.22;;
54959;SDS011;40860;51.710;8.736;2023-12-20T04:21:01;11.75;;;6.30;;
54959;SDS011;40860;51.710;8.736;2023-12-20T04:25:04;12.68;;;5.80;;
54959;SDS011;40860;51.710;8.736;2023-12-20T04:29:07;11.63;;;5.38;;
54959;SDS011;40860;51.710;8.736;2023-12-20T04:33:11;13.48;;;4.63;;
54959;SDS011;40860;51.710;8.736;2023-12-20T04:37:14;11.93;;;5.30;;
54959;SDS011;40860;51.710;8.736;2023-12-20T04:41:17;15.60;;;5.30;;
54959;SDS011;40860;51.710;8.736;2023-12-20T04:45:20;12.23;;;4.72;;
54959;SDS011;40860;51.710;8.736;2023-12-20T04:49:26;14.75;;;5.03;;
54959;SDS011;40860;51.710;8.736;2023-12-20T04:53:29;12.23;;;5.22;;
54959;SDS011;40860;51.710;8.736;2023-12-20T04:57:31;13.70;;;5.47;;
54959;SDS011;40860;51.710;8.736;2023-12-20T05:01:34;14.30;;;5.18;;
54959;SDS011;40860;51.710;8.736;2023-12-20T05:05:39;14.07;;;5.68;;
54959;SDS011;40860;51.710;8.736;2023-12-20T05:09:41;16.20;;;5.10;;
54959;SDS011;40860;51.710;8.736;2023-12-20T05:13:44;15.60;;;5.68;;
54959;SDS011;40860;51.710;8.736;2023-12-20T05:17:51;17.02;;;5.68;;
54959;SDS011;40860;51.710;8.736;2023-12-20T05:21:55;13.10;;;5.60;;
54959;SDS011;40860;51.710;8.736;2023-12-20T05:25:58;15.60;;;5.45;;
54959;SDS011;40860;51.710;8.736;2023-12-20T05:30:01;13.05;;;5.88;;
54959;SDS011;40860;51.710;8.736;2023-12-20T05:34:06;14.90;;;5.32;;
54959;SDS011;40860;51.710;8.736;2023-12-20T05:38:10;17.80;;;5.70;;
54959;SDS011;40860;51.710;8.736;2023-12-20T05:42:13;12.18;;;5.53;;
54959;SDS011;40860;51.710;8.736;2023-12-20T05:46:16;14.02;;;5.70;;
54959;SDS011;40860;51.710;8.736;2023-12-20T05:50:19;15.50;;;6.90;;
54959;SDS011;40860;51.710;8.736;2023-12-20T05:54:24;16.98;;;6.68;;
54959;SDS011;40860;51.710;8.736;2023-12-20T05:58:27;17.27;;;6.00;;
54959;SDS011;40860;51.710;8.736;2023-12-20T06:02:30;20.08;;;7.07;;
54959;SDS011;40860;51.710;8.736;2023-12-20T06:06:34;17.15;;;6.40;;
54959;SDS011;40860;51.710;8.736;2023-12-20T06:10:38;16.65;;;6.20;;
54959;SDS011;40860;51.710;8.736;2023-12-20T06:14:41;18.33;;;6.80;;
54959;SDS011;40860;51.710;8.736;2023-12-20T06:18:44;16.17;;;7.15;;
54959;SDS011;40860;51.710;8.736;2023-12-20T06:22:47;24.05;;;7.07;;
54959;SDS011;40860;51.710;8.736;2023-12-20T06:26:52;18.35;;;7.80;;
54959;SDS011;40860;51.710;8.736;2023-12-20T06:30:55;21.73;;;7.35;;
54959;SDS011;40860;51.710;8.736;2023-12-20T06:34:59;18.38;;;7.63;;
54959;SDS011;40860;51.710;8.736;2023-12-20T06:39:02;17.73;;;7.85;;
54959;SDS011;40860;51.710;8.736;2023-12-20T06:43:07;23.88;;;8.65;;
54959;SDS011;40860;51.710;8.736;2023-12-20T06:47:21;18.35;;;9.50;;
54959;SDS011;40860;51.710;8.736;2023-12-20T06:51:24;18.08;;;8.25;;
54959;SDS011;40860;51.710;8.736;2023-12-20T06:55:27;26.02;;;9.02;;
54959;SDS011;40860;51.710;8.736;2023-12-20T06:59:32;20.25;;;9.23;;
54959;SDS011;40860;51.710;8.736;2023-12-20T07:03:35;17.30;;;8.52;;
54959;SDS011;40860;51.710;8.736;2023-12-20T07:07:37;22.90;;;8.30;;
54959;SDS011;40860;51.710;8.736;2023-12-20T07:11:41;21.85;;;8.35;;
54959;SDS011;40860;51.710;8.736;2023-12-20T07:15:45;20.17;;;9.48;;
54959;SDS011;40860;51.710;8.736;2023-12-20T07:19:48;19.90;;;9.18;;
54959;SDS011;40860;51.710;8.736;2023-12-20T07:23:50;19.67;;;9.23;;
54959;SDS011;40860;51.710;8.736;2023-12-20T07:27:53;21.55;;;9.32;;
54959;SDS011;40860;51.710;8.736;2023-12-20T07:31:57;14.73;;;8.50;;
54959;SDS011;40860;51.710;8.736;2023-12-20T07:36:00;26.60;;;9.50;;
54959;SDS011;40860;51.710;8.736;2023-12-20T07:40:03;21.98;;;8.27;;
54959;SDS011;40860;51.710;8.736;2023-12-20T07:44:07;19.05;;;8.38;;
54959;SDS011;40860;51.710;8.736;2023-12-20T07:48:12;20.83;;;8.65;;
54959;SDS011;40860;51.710;8.736;2023-12-20T07:52:15;18.13;;;8.15;;
54959;SDS011;40860;51.710;8.736;2023-12-20T07:56:18;25.27;;;9.05;;
54959;SDS011;40860;51.710;8.736;2023-12-20T08:00:21;19.40;;;8.75;;
54959;SDS011;40860;51.710;8.736;2023-12-20T08:04:26;19.95;;;7.88;;
54959;SDS011;40860;51.710;8.736;2023-12-20T08:08:29;17.08;;;8.27;;
54959;SDS011;40860;51.710;8.736;2023-12-20T08:12:32;13.85;;;7.50;;
54959;SDS011;40860;51.710;8.736;2023-12-20T08:16:34;21.42;;;7.53;;
54959;SDS011;40860;51.710;8.736;2023-12-20T08:20:39;16.90;;;7.72;;
54959;SDS011;40860;51.710;8.736;2023-12-20T08:24:42;15.88;;;6.57;;
54959;SDS011;40860;51.710;8.736;2023-12-20T08:28:45;25.75;;;7.00;;
54959;SDS011;40860;51.710;8.736;2023-12-20T08:32:48;19.42;;;6.80;;
54959;SDS011;40860;51.710;8.736;2023-12-20T08:36:53;13.40;;;6.28;;
54959;SDS011;40860;51.710;8.736;2023-12-20T08:40:56;16.52;;;6.40;;
54959;SDS011;40860;51.710;8.736;2023-12-20T08:44:59;18.40;;;7.15;;
54959;SDS011;40860;51.710;8.736;2023-12-20T08:49:02;21.65;;;7.07;;
54959;SDS011;40860;51.710;8.736;2023-12-20T08:53:06;17.45;;;6.18;;
54959;SDS011;40860;51.710;8.736;2023-12-20T08:57:09;15.88;;;6.28;;
54959;SDS011;40860;51.710;8.736;2023-12-20T09:01:12;16.35;;;6.15;;
54959;SDS011;40860;51.710;8.736;2023-12-20T09:05:15;18.95;;;6.43;;
54959;SDS011;40860;51.710;8.736;2023-12-20T09:09:19;12.18;;;5.63;;
54959;SDS011;40860;51.710;8.736;2023-12-20T09:13:22;16.30;;;6.00;;
54959;SDS011;40860;51.710;8.736;2023-12-20T09:17:29;14.85;;;5.97;;
54959;SDS011;40860;51.710;8.736;2023-12-20T09:21:33;16.25;;;6.32;;
54959;SDS011;40860;51.710;8.736;2023-12-20T09:25:38;18.75;;;6.00;;
54959;SDS011;40860;51.710;8.736;2023-12-20T09:29:44;17.70;;;6.60;;
54959;SDS011;40860;51.710;8.736;2023-12-20T09:33:47;17.88;;;6.50;;
54959;SDS011;40860;51.710;8.736;2023-12-20T09:37:50;15.85;;;6.25;;
54959;SDS011;40860;51.710;8.736;2023-12-20T09:42:02;17.60;;;6.30;;
54959;SDS011;40860;51.710;8.736;2023-12-20T09:46:06;15.13;;;6.40;;
54959;SDS011;40860;51.710;8.736;2023-12-20T09:50:17;19.02;;;7.05;;
54959;SDS011;40860;51.710;8.736;2023-12-20T09:54:22;16.10;;;6.45;;
54959;SDS011;40860;51.710;8.736;2023-12-20T09:58:27;14.60;;;6.43;;
54959;SDS011;40860;51.710;8.736;2023-12-20T10:02:30;17.17;;;6.88;;
54959;SDS011;40860;51.710;8.736;2023-12-20T10:06:33;19.52;;;7.20;;
54959;SDS011;40860;51.710;8.736;2023-12-20T10:10:37;17.67;;;6.55;;
54959;SDS011;40860;51.710;8.736;2023-12-20T10:14:50;15.00;;;6.68;;
54959;SDS011;40860;51.710;8.736;2023-12-20T10:18:53;14.68;;;6.43;;
54959;SDS011;40860;51.710;8.736;2023-12-20T10:22:56;19.08;;;6.88;;
54959;SDS011;40860;51.710;8.736;2023-12-20T10:27:01;17.38;;;6.20;;
54959;SDS011;40860;51.710;8.736;2023-12-20T10:31:06;16.17;;;7.05;;
54959;SDS011;40860;51.710;8.736;2023-12-20T10:35:09;12.73;;;6.10;;
54959;SDS011;40860;51.710;8.736;2023-12-20T10:39:12;13.60;;;6.65;;
54959;SDS011;40860;51.710;8.736;2023-12-20T10:43:19;17.48;;;6.80;;
54959;SDS011;40860;51.710;8.736;2023-12-20T10:47:24;15.45;;;6.50;;
54959;SDS011;40860;51.710;8.736;2023-12-20T10:51:28;15.98;;;5.65;;
54959;SDS011;40860;51.710;8.736;2023-12-20T10:55:31;13.23;;;6.13;;
54959;SDS011;40860;51.710;8.736;2023-12-20T10:59:36;14.00;;;6.60;;
54959;SDS011;40860;51.710;8.736;2023-12-20T11:03:43;18.30;;;6.50;;
54959;SDS011;40860;51.710;8.736;2023-12-20T11:07:49;14.70;;;6.78;;
54959;SDS011;40860;51.710;8.736;2023-12-20T11:11:56;17.63;;;6.70;;
54959;SDS011;40860;51.710;8.736;2023-12-20T11:16:05;18.17;;;6.75;;
54959;SDS011;40860;51.710;8.736;2023-12-20T11:20:11;19.27;;;6.85;;
54959;SDS011;40860;51.710;8.736;2023-12-20T11:24:15;16.83;;;6.70;;
54959;SDS011;40860;51.710;8.736;2023-12-20T11:28:20;20.02;;;7.20;;
54959;SDS011;40860;51.710;8.736;2023-12-20T11:32:28;13.93;;;6.82;;
54959;SDS011;40860;51.710;8.736;2023-12-20T11:36:32;13.60;;;6.38;;
54959;SDS011;40860;51.710;8.736;2023-12-20T11:40:35;13.63;;;6.25;;
54959;SDS011;40860;51.710;8.736;2023-12-20T11:44:39;15.82;;;6.72;;
54959;SDS011;40860;51.710;8.736;2023-12-20T11:48:46;15.88;;;7.20;;
54959;SDS011;40860;51.710;8.736;2023-12-20T11:52:51;16.25;;;6.88;;
54959;SDS011;40860;51.710;8.736;2023-12-20T11:56:55;14.35;;;5.97;;
54959;SDS011;40860;51.710;8.736;2023-12-20T12:00:58;14.27;;;6.22;;
54959;SDS011;40860;51.710;8.736;2023-12-20T12:05:04;19.48;;;7.18;;
54959;SDS011;40860;51.710;8.736;2023-12-20T12:09:09;16.00;;;6.82;;
54959;SDS011;40860;51.710;8.736;2023-12-20T12:13:12;15.23;;;6.90;;
54959;SDS011;40860;51.710;8.736;2023-12-20T12:17:16;19.40;;;7.40;;
54959;SDS011;40860;51.710;8.736;2023-12-20T12:21:19;17.40;;;7.68;;
54959;SDS011;40860;51.710;8.736;2023-12-20T12:25:34;20.50;;;7.63;;
54959;SDS011;40860;51.710;8.736;2023-12-20T12:34:05;15.38;;;7.68;;
54959;SDS011;40860;51.710;8.736;2023-12-20T12:38:10;12.98;;;7.32;;
54959;SDS011;40860;51.710;8.736;2023-12-20T12:42:15;16.05;;;7.47;;
54959;SDS011;40860;51.710;8.736;2023-12-20T12:46:18;14.05;;;7.30;;
54959;SDS011;40860;51.710;8.736;2023-12-20T12:50:21;16.83;;;6.90;;
54959;SDS011;40860;51.710;8.736;2023-12-20T12:54:25;15.38;;;7.20;;
54959;SDS011;40860;51.710;8.736;2023-12-20T12:58:30;13.70;;;7.20;;
54959;SDS011;40860;51.710;8.736;2023-12-20T13:02:33;13.43;;;6.65;;
54959;SDS011;40860;51.710;8.736;2023-12-20T13:06:36;16.27;;;6.90;;
54959;SDS011;40860;51.710;8.736;2023-12-20T13:10:40;18.50;;;7.43;;
54959;SDS011;40860;51.710;8.736;2023-12-20T13:14:44;11.60;;;5.93;;
54959;SDS011;40860;51.710;8.736;2023-12-20T13:18:48;17.05;;;6.28;;
54959;SDS011;40860;51.710;8.736;2023-12-20T13:22:51;12.75;;;5.63;;
54959;SDS011;40860;51.710;8.736;2023-12-20T13:26:54;14.50;;;5.68;;
54959;SDS011;40860;51.710;8.736;2023-12-20T13:30:59;14.95;;;5.65;;
54959;SDS011;40860;51.710;8.736;2023-12-20T13:35:02;18.45;;;5.80;;
54959;SDS011;40860;51.710;8.736;2023-12-20T13:39:06;15.60;;;6.25;;
54959;SDS011;40860;51.710;8.736;2023-12-20T13:43:10;11.23;;;6.05;;
54959;SDS011;40860;51.710;8.736;2023-12-20T13:47:15;11.77;;;5.70;;
54959;SDS011;40860;51.710;8.736;2023-12-20T13:51:21;18.65;;;6.28;;
54959;SDS011;40860;51.710;8.736;2023-12-20T13:55:26;15.43;;;6.20;;
54959;SDS011;40860;51.710;8.736;2023-12-20T13:59:30;15.50;;;6.13;;
54959;SDS011;40860;51.710;8.736;2023-12-20T14:03:34;11.98;;;5.82;;
54959;SDS011;40860;51.710;8.736;2023-12-20T14:07:38;12.90;;;6.18;;
54959;SDS011;40860;51.710;8.736;2023-12-20T14:11:41;13.75;;;6.40;;
54959;SDS011;40860;51.710;8.736;2023-12-20T14:15:44;11.68;;;6.75;;
54959;SDS011;40860;51.710;8.736;2023-12-20T14:19:49;10.73;;;7.00;;
54959;SDS011;40860;51.710;8.736;2023-12-20T14:23:53;11.95;;;6.45;;
54959;SDS011;40860;51.710;8.736;2023-12-20T14:27:56;16.00;;;7.30;;
54959;SDS011;40860;51.710;8.736;2023-12-20T14:32:00;14.55;;;7.88;;
54959;SDS011;40860;51.710;8.736;2023-12-20T14:36:06;17.38;;;8.13;;
54959;SDS011;40860;51.710;8.736;2023-12-20T14:40:10;13.73;;;7.95;;
54959;SDS011;40860;51.710;8.736;2023-12-20T14:44:17;17.35;;;8.45;;
54959;SDS011;40860;51.710;8.736;2023-12-20T14:48:20;18.02;;;8.70;;
54959;SDS011;40860;51.710;8.736;2023-12-20T14:52:25;12.68;;;7.93;;
54959;SDS011;40860;51.710;8.736;2023-12-20T14:56:29;14.98;;;7.93;;
54959;SDS011;40860;51.710;8.736;2023-12-20T15:00:32;14.68;;;7.40;;
54959;SDS011;40860;51.710;8.736;2023-12-20T15:04:35;15.63;;;7.45;;
54959;SDS011;40860;51.710;8.736;2023-12-20T15:08:40;14.75;;;7.38;;
54959;SDS011;40860;51.710;8.736;2023-12-20T15:12:43;14.30;;;7.30;;
54959;SDS011;40860;51.710;8.736;2023-12-20T15:16:47;15.68;;;7.68;;
54959;SDS011;40860;51.710;8.736;2023-12-20T15:20:50;13.70;;;7.97;;
54959;SDS011;40860;51.710;8.736;2023-12-20T15:24:55;13.93;;;7.65;;
54959;SDS011;40860;51.710;8.736;2023-12-20T15:28:58;15.82;;;7.40;;
54959;SDS011;40860;51.710;8.736;2023-12-20T15:33:02;12.93;;;7.68;;
54959;SDS011;40860;51.710;8.736;2023-12-20T15:37:08;12.55;;;7.13;;
54959;SDS011;40860;51.710;8.736;2023-12-20T15:41:17;12.73;;;7.70;;
54959;SDS011;40860;51.710;8.736;2023-12-20T15:45:21;16.77;;;7.57;;
54959;SDS011;40860;51.710;8.736;2023-12-20T15:49:24;11.18;;;7.50;;
54959;SDS011;40860;51.710;8.736;2023-12-20T15:53:27;12.88;;;7.97;;
54959;SDS011;40860;51.710;8.736;2023-12-20T15:57:32;14.93;;;7.82;;
54959;SDS011;40860;51.710;8.736;2023-12-20T16:01:52;13.00;;;8.45;;
54959;SDS011;40860;51.710;8.736;2023-12-20T16:05:55;12.10;;;8.00;;
54959;SDS011;40860;51.710;8.736;2023-12-20T16:09:59;13.57;;;8.15;;
54959;SDS011;40860;51.710;8.736;2023-12-20T16:14:04;14.02;;;8.65;;
54959;SDS011;40860;51.710;8.736;2023-12-20T16:18:08;15.82;;;7.90;;
54959;SDS011;40860;51.710;8.736;2023-12-20T16:22:12;13.40;;;7.60;;
54959;SDS011;40860;51.710;8.736;2023-12-20T16:26:15;13.27;;;8.13;;
54959;SDS011;40860;51.710;8.736;2023-12-20T16:30:20;13.02;;;8.35;;
54959;SDS011;40860;51.710;8.736;2023-12-20T16:34:24;15.07;;;8.15;;
54959;SDS011;40860;51.710;8.736;2023-12-20T16:38:30;13.55;;;9.10;;
54959;SDS011;40860;51.710;8.736;2023-12-20T16:42:34;18.08;;;9.80;;
54959;SDS011;40860;51.710;8.736;2023-12-20T16:46:38;18.80;;;9.50;;
54959;SDS011;40860;51.710;8.736;2023-12-20T16:50:43;18.90;;;9.77;;
54959;SDS011;40860;51.710;8.736;2023-12-20T16:54:48;14.88;;;9.77;;
54959;SDS011;40860;51.710;8.736;2023-12-20T16:58:54;13.95;;;9.95;;
54959;SDS011;40860;51.710;8.736;2023-12-20T17:02:59;19.75;;;10.55;;
54959;SDS011;40860;51.710;8.736;2023-12-20T17:07:01;20.67;;;10.88;;
54959;SDS011;40860;51.710;8.736;2023-12-20T17:11:05;16.83;;;10.82;;
54959;SDS011;40860;51.710;8.736;2023-12-20T17:15:08;15.32;;;10.40;;
54959;SDS011;40860;51.710;8.736;2023-12-20T17:19:12;19.48;;;11.10;;
54959;SDS011;40860;51.710;8.736;2023-12-20T17:23:15;16.50;;;11.23;;
54959;SDS011;40860;51.710;8.736;2023-12-20T17:27:18;22.85;;;11.23;;
54959;SDS011;40860;51.710;8.736;2023-12-20T17:31:21;16.52;;;11.18;;
54959;SDS011;40860;51.710;8.736;2023-12-20T17:35:25;19.58;;;11.15;;
54959;SDS011;40860;51.710;8.736;2023-12-20T17:39:28;18.08;;;10.40;;
54959;SDS011;40860;51.710;8.736;2023-12-20T17:43:32;16.77;;;10.32;;
54959;SDS011;40860;51.710;8.736;2023-12-20T17:47:35;19.60;;;10.07;;
54959;SDS011;40860;51.710;8.736;2023-12-20T17:51:39;20.25;;;11.30;;
54959;SDS011;40860;51.710;8.736;2023-12-20T17:55:42;20.17;;;10.88;;
54959;SDS011;40860;51.710;8.736;2023-12-20T17:59:45;18.58;;;11.50;;
54959;SDS011;40860;51.710;8.736;2023-12-20T18:03:49;17.52;;;11.15;;
54959;SDS011;40860;51.710;8.736;2023-12-20T18:07:54;18.58;;;10.82;;
54959;SDS011;40860;51.710;8.736;2023-12-20T18:11:57;20.50;;;9.98;;
54959;SDS011;40860;51.710;8.736;2023-12-20T18:16:01;16.55;;;10.13;;
54959;SDS011;40860;51.710;8.736;2023-12-20T18:20:12;20.40;;;10.40;;
54959;SDS011;40860;51.710;8.736;2023-12-20T18:24:17;20.65;;;10.40;;
54959;SDS011;40860;51.710;8.736;2023-12-20T18:28:20;17.42;;;9.60;;
54959;SDS011;40860;51.710;8.736;2023-12-20T18:32:24;18.23;;;9.05;;
54959;SDS011;40860;51.710;8.736;2023-12-20T18:36:28;14.13;;;8.70;;
54959;SDS011;40860;51.710;8.736;2023-12-20T18:40:32;17.80;;;8.88;;
54959;SDS011;40860;51.710;8.736;2023-12-20T18:44:36;16.83;;;8.70;;
54959;SDS011;40860;51.710;8.736;2023-12-20T18:48:40;16.58;;;9.15;;
54959;SDS011;40860;51.710;8.736;2023-12-20T18:52:44;12.77;;;8.70;;
54959;SDS011;40860;51.710;8.736;2023-12-20T18:56:49;16.38;;;8.75;;
54959;SDS011;40860;51.710;8.736;2023-12-20T19:00:54;15.00;;;8.35;;
54959;SDS011;40860;51.710;8.736;2023-12-20T19:04:57;16.83;;;8.77;;
54959;SDS011;40860;51.710;8.736;2023-12-20T19:09:01;14.05;;;7.30;;
54959;SDS011;40860;51.710;8.736;2023-12-20T19:13:06;13.40;;;7.07;;
54959;SDS011;40860;51.710;8.736;2023-12-20T19:17:09;15.85;;;7.82;;
54959;SDS011;40860;51.710;8.736;2023-12-20T19:21:13;15.75;;;7.22;;
54959;SDS011;40860;51.710;8.736;2023-12-20T19:25:16;11.77;;;7.15;;
54959;SDS011;40860;51.710;8.736;2023-12-20T19:29:21;14.85;;;7.28;;
54959;SDS011;40860;51.710;8.736;2023-12-20T19:33:24;10.75;;;6.68;;
54959;SDS011;40860;51.710;8.736;2023-12-20T19:37:29;13.63;;;7.10;;
54959;SDS011;40860;51.710;8.736;2023-12-20T19:41:33;10.82;;;6.30;;
54959;SDS011;40860;51.710;8.736;2023-12-20T19:45:38;14.27;;;6.57;;
54959;SDS011;40860;51.710;8.736;2023-12-20T19:49:41;9.75;;;6.18;;
54959;SDS011;40860;51.710;8.736;2023-12-20T19:53:45;11.80;;;6.40;;
54959;SDS011;40860;51.710;8.736;2023-12-20T19:57:48;12.73;;;6.57;;
54959;SDS011;40860;51.710;8.736;2023-12-20T20:01:55;12.68;;;5.80;;
54959;SDS011;40860;51.710;8.736;2023-12-20T20:06:01;11.20;;;6.35;;
54959;SDS011;40860;51.710;8.736;2023-12-20T20:10:06;10.75;;;5.90;;
54959;SDS011;40860;51.710;8.736;2023-12-20T20:14:10;10.85;;;5.68;;
54959;SDS011;40860;51.710;8.736;2023-12-20T20:18:15;13.07;;;6.18;;
54959;SDS011;40860;51.710;8.736;2023-12-20T20:22:20;11.35;;;6.22;;
54959;SDS011;40860;51.710;8.736;2023-12-20T20:26:25;9.60;;;6.00;;
54959;SDS011;40860;51.710;8.736;2023-12-20T20:30:29;11.07;;;6.63;;
54959;SDS011;40860;51.710;8.736;2023-12-20T20:34:34;10.50;;;6.20;;
54959;SDS011;40860;51.710;8.736;2023-12-20T20:38:37;10.63;;;6.00;;
54959;SDS011;40860;51.710;8.736;2023-12-20T20:42:41;7.72;;;5.07;;
54959;SDS011;40860;51.710;8.736;2023-12-20T20:46:46;11.15;;;5.95;;
54959;SDS011;40860;51.710;8.736;2023-12-20T20:50:51;7.40;;;5.40;;
54959;SDS011;40860;51.710;8.736;2023-12-20T20:54:57;8.40;;;5.13;;
54959;SDS011;40860;51.710;8.736;2023-12-20T20:59:01;6.57;;;5.15;;
54959;SDS011;40860;51.710;8.736;2023-12-20T21:03:04;7.43;;;5.00;;
54959;SDS011;40860;51.710;8.736;2023-12-20T21:07:11;9.50;;;4.63;;
54959;SDS011;40860;51.710;8.736;2023-12-20T21:11:14;8.70;;;5.35;;
54959;SDS011;40860;51.710;8.736;2023-12-20T21:15:20;6.45;;;4.28;;
54959;SDS011;40860;51.710;8.736;2023-12-20T21:19:23;6.22;;;4.35;;
54959;SDS011;40860;51.710;8.736;2023-12-20T21:23:28;5.45;;;4.10;;
54959;SDS011;40860;51.710;8.736;2023-12-20T21:27:31;8.35;;;4.15;;
54959;SDS011;40860;51.710;8.736;2023-12-20T21:31:35;5.93;;;4.40;;
54959;SDS011;40860;51.710;8.736;2023-12-20T21:35:39;5.88;;;3.97;;
54959;SDS011;40860;51.710;8.736;2023-12-20T21:39:44;7.03;;;4.18;;
54959;SDS011;40860;51.710;8.736;2023-12-20T21:43:47;6.22;;;4.13;;
54959;SDS011;40860;51.710;8.736;2023-12-20T21:47:51;3.40;;;3.05;;
54959;SDS011;40860;51.710;8.736;2023-12-20T21:51:54;4.47;;;3.60;;
54959;SDS011;40860;51.710;8.736;2023-12-20T21:55:59;4.65;;;3.28;;
54959;SDS011;40860;51.710;8.736;2023-12-20T22:00:02;5.53;;;3.10;;
54959;SDS011;40860;51.710;8.736;2023-12-20T22:04:07;3.58;;;2.78;;
54959;SDS011;40860;51.710;8.736;2023-12-20T22:08:10;4.38;;;3.25;;
54959;SDS011;40860;51.710;8.736;2023-12-20T22:12:15;2.95;;;2.65;;
54959;SDS011;40860;51.710;8.736;2023-12-20T22:16:18;3.08;;;2.80;;
54959;SDS011;40860;51.710;8.736;2023-12-20T22:20:22;3.00;;;2.80;;
54959;SDS011;40860;51.710;8.736;2023-12-20T22:24:26;3.08;;;2.75;;
54959;SDS011;40860;51.710;8.736;2023-12-20T22:28:30;2.90;;;2.70;;
54959;SDS011;40860;51.710;8.736;2023-12-20T22:32:34;3.67;;;2.75;;
54959;SDS011;40860;51.710;8.736;2023-12-20T22:36:39;5.60;;;2.15;;
54959;SDS011;40860;51.710;8.736;2023-12-20T22:40:42;3.08;;;2.42;;
54959;SDS011;40860;51.710;8.736;2023-12-20T22:44:47;3.35;;;3.05;;
54959;SDS011;40860;51.710;8.736;2023-12-20T22:48:55;3.28;;;2.70;;
54959;SDS011;40860;51.710;8.736;2023-12-20T22:52:59;3.13;;;2.83;;
54959;SDS011;40860;51.710;8.736;2023-12-20T22:57:02;2.53;;;2.33;;
54959;SDS011;40860;51.710;8.736;2023-12-20T23:01:07;2.75;;;2.55;;
54959;SDS011;40860;51.710;8.736;2023-12-20T23:05:09;2.45;;;2.28;;
54959;SDS011;40860;51.710;8.736;2023-12-20T23:09:12;2.38;;;2.17;;
54959;SDS011;40860;51.710;8.736;2023-12-20T23:13:15;2.13;;;1.92;;
54959;SDS011;40860;51.710;8.736;2023-12-20T23:17:19;2.65;;;2.45;;
54959;SDS011;40860;51.710;8.736;2023-12-20T23:21:23;2.60;;;2.20;;
54959;SDS011;40860;51.710;8.736;2023-12-20T23:25:26;2.42;;;2.20;;
54959;SDS011;40860;51.710;8.736;2023-12-20T23:29:30;2.83;;;2.63;;
54959;SDS011;40860;51.710;8.736;2023-12-20T23:33:34;3.22;;;2.58;;
54959;SDS011;40860;51.710;8.736;2023-12-20T23:37:37;2.38;;;2.17;;
54959;SDS011;40860;51.710;8.736;2023-12-20T23:41:40;3.22;;;3.03;;
54959;SDS011;40860;51.710;8.736;2023-12-20T23:45:43;2.80;;;2.60;;
54959;SDS011;40860;51.710;8.736;2023-12-20T23:49:48;3.17;;;2.88;;
54959;SDS011;40860;51.710;8.736;2023-12-20T23:53:51;3.15;;;2.85;;
54959;SDS011;40860;51.710;8.736;2023-12-20T23:57:54;3.50;;;3.10;;
